sensor_id;sensor_type;location;lat;lon;timestamp;P1;durP1;ratioP1;P2;durP2;ratioP2
7971;SDS011;4031;49.758;6.120;2023-05-10T00:00:57;6.07;;;4.20;;
7971;SDS011;4031;49.758;6.120;2023-05-10T00:03:24;6.63;;;4.17;;
7971;SDS011;4031;49.758;6.120;2023-05-10T00:05:50;6.07;;;4.53;;
7971;SDS011;4031;49.758;6.120;2023-05-10T00:08:15;5.63;;;4.57;;
7971;SDS011;4031;49.758;6.120;2023-05-10T00:10:41;6.53;;;4.93;;
7971;SDS011;4031;49.758;6.120;2023-05-10T00:13:07;5.60;;;4.00;;
7971;SDS011;4031;49.758;6.120;2023-05-10T00:15:32;6.23;;;4.97;;
7971;SDS011;4031;49.758;6.120;2023-05-10T00:17:59;8.60;;;4.50;;
7971;SDS011;4031;49.758;6.120;2023-05-10T00:20:25;7.73;;;4.70;;
7971;SDS011;4031;49.758;6.120;2023-05-10T00:22:51;6.37;;;5.00;;
7971;SDS011;4031;49.758;6.120;2023-05-10T00:25:17;9.30;;;6.13;;
7971;SDS011;4031;49.758;6.120;2023-05-10T00:27:42;6.47;;;4.63;;
7971;SDS011;4031;49.758;6.120;2023-05-10T00:30:08;6.43;;;4.70;;
7971;SDS011;4031;49.758;6.120;2023-05-10T00:32:34;6.70;;;4.87;;
7971;SDS011;4031;49.758;6.120;2023-05-10T00:35:00;7.97;;;5.47;;
7971;SDS011;4031;49.758;6.120;2023-05-10T00:37:25;10.80;;;5.67;;
7971;SDS011;4031;49.758;6.120;2023-05-10T00:39:51;9.60;;;5.00;;
7971;SDS011;4031;49.758;6.120;2023-05-10T00:42:17;12.63;;;5.47;;
7971;SDS011;4031;49.758;6.120;2023-05-10T00:44:43;9.40;;;6.27;;
7971;SDS011;4031;49.758;6.120;2023-05-10T00:47:08;9.33;;;5.97;;
7971;SDS011;4031;49.758;6.120;2023-05-10T00:49:35;10.00;;;5.70;;
7971;SDS011;4031;49.758;6.120;2023-05-10T00:52:01;11.13;;;6.23;;
7971;SDS011;4031;49.758;6.120;2023-05-10T00:54:27;10.90;;;6.30;;
7971;SDS011;4031;49.758;6.120;2023-05-10T00:56:53;14.60;;;6.67;;
7971;SDS011;4031;49.758;6.120;2023-05-10T00:59:19;9.50;;;6.00;;
7971;SDS011;4031;49.758;6.120;2023-05-10T01:01:45;10.47;;;7.20;;
7971;SDS011;4031;49.758;6.120;2023-05-10T01:04:11;10.23;;;6.07;;
7971;SDS011;4031;49.758;6.120;2023-05-10T01:06:39;9.47;;;6.20;;
7971;SDS011;4031;49.758;6.120;2023-05-10T01:09:05;13.20;;;6.53;;
7971;SDS011;4031;49.758;6.120;2023-05-10T01:11:32;10.27;;;6.20;;
7971;SDS011;4031;49.758;6.120;2023-05-10T01:14:00;13.97;;;6.57;;
7971;SDS011;4031;49.758;6.120;2023-05-10T01:16:27;9.67;;;5.53;;
7971;SDS011;4031;49.758;6.120;2023-05-10T01:19:03;9.00;;;6.17;;
7971;SDS011;4031;49.758;6.120;2023-05-10T01:21:37;16.20;;;7.10;;
7971;SDS011;4031;49.758;6.120;2023-05-10T01:24:21;12.17;;;7.00;;
7971;SDS011;4031;49.758;6.120;2023-05-10T01:39:02;10.90;;;5.03;;
7971;SDS011;4031;49.758;6.120;2023-05-10T01:42:05;9.33;;;5.90;;
7971;SDS011;4031;49.758;6.120;2023-05-10T01:44:37;11.20;;;5.87;;
7971;SDS011;4031;49.758;6.120;2023-05-10T01:47:11;8.83;;;5.23;;
7971;SDS011;4031;49.758;6.120;2023-05-10T01:49:46;13.70;;;6.40;;
7971;SDS011;4031;49.758;6.120;2023-05-10T01:52:16;11.47;;;5.87;;
7971;SDS011;4031;49.758;6.120;2023-05-10T01:54:49;9.50;;;5.30;;
7971;SDS011;4031;49.758;6.120;2023-05-10T01:57:21;9.40;;;5.67;;
7971;SDS011;4031;49.758;6.120;2023-05-10T01:59:53;7.50;;;5.23;;
7971;SDS011;4031;49.758;6.120;2023-05-10T02:02:20;9.53;;;5.57;;
7971;SDS011;4031;49.758;6.120;2023-05-10T02:04:48;14.43;;;6.43;;
7971;SDS011;4031;49.758;6.120;2023-05-10T02:07:16;14.43;;;5.57;;
7971;SDS011;4031;49.758;6.120;2023-05-10T02:09:43;10.10;;;5.33;;
7971;SDS011;4031;49.758;6.120;2023-05-10T02:12:12;11.70;;;5.97;;
7971;SDS011;4031;49.758;6.120;2023-05-10T02:14:39;18.57;;;7.63;;
7971;SDS011;4031;49.758;6.120;2023-05-10T02:17:07;9.13;;;5.47;;
7971;SDS011;4031;49.758;6.120;2023-05-10T02:19:35;9.90;;;6.47;;
7971;SDS011;4031;49.758;6.120;2023-05-10T02:22:04;10.63;;;6.60;;
7971;SDS011;4031;49.758;6.120;2023-05-10T02:24:30;9.20;;;5.43;;
7971;SDS011;4031;49.758;6.120;2023-05-10T02:26:58;9.67;;;6.03;;
7971;SDS011;4031;49.758;6.120;2023-05-10T02:29:25;9.33;;;5.83;;
7971;SDS011;4031;49.758;6.120;2023-05-10T02:31:53;13.47;;;7.03;;
7971;SDS011;4031;49.758;6.120;2023-05-10T02:34:25;13.77;;;6.87;;
7971;SDS011;4031;49.758;6.120;2023-05-10T02:36:52;9.07;;;6.40;;
7971;SDS011;4031;49.758;6.120;2023-05-10T02:39:19;10.07;;;5.87;;
7971;SDS011;4031;49.758;6.120;2023-05-10T02:41:46;12.10;;;6.27;;
7971;SDS011;4031;49.758;6.120;2023-05-10T02:44:19;13.30;;;6.77;;
7971;SDS011;4031;49.758;6.120;2023-05-10T02:46:47;14.23;;;6.53;;
7971;SDS011;4031;49.758;6.120;2023-05-10T02:49:13;8.67;;;5.90;;
7971;SDS011;4031;49.758;6.120;2023-05-10T02:51:44;10.50;;;6.00;;
7971;SDS011;4031;49.758;6.120;2023-05-10T02:54:20;12.00;;;7.50;;
7971;SDS011;4031;49.758;6.120;2023-05-10T02:57:00;10.97;;;5.30;;
7971;SDS011;4031;49.758;6.120;2023-05-10T02:59:29;9.13;;;6.10;;
7971;SDS011;4031;49.758;6.120;2023-05-10T03:01:55;13.30;;;6.83;;
7971;SDS011;4031;49.758;6.120;2023-05-10T03:04:21;9.00;;;6.17;;
7971;SDS011;4031;49.758;6.120;2023-05-10T03:06:47;8.00;;;5.30;;
7971;SDS011;4031;49.758;6.120;2023-05-10T03:09:13;11.70;;;5.80;;
7971;SDS011;4031;49.758;6.120;2023-05-10T03:11:48;9.50;;;5.40;;
7971;SDS011;4031;49.758;6.120;2023-05-10T03:17:29;6.70;;;4.03;;
7971;SDS011;4031;49.758;6.120;2023-05-10T03:20:16;6.90;;;4.00;;
7971;SDS011;4031;49.758;6.120;2023-05-10T03:22:51;5.10;;;4.23;;
7971;SDS011;4031;49.758;6.120;2023-05-10T03:25:25;5.17;;;3.60;;
7971;SDS011;4031;49.758;6.120;2023-05-10T03:27:51;5.17;;;3.90;;
7971;SDS011;4031;49.758;6.120;2023-05-10T03:30:18;8.17;;;3.80;;
7971;SDS011;4031;49.758;6.120;2023-05-10T03:32:44;3.17;;;2.77;;
7971;SDS011;4031;49.758;6.120;2023-05-10T03:35:10;4.40;;;3.10;;
7971;SDS011;4031;49.758;6.120;2023-05-10T03:37:38;3.17;;;2.10;;
7971;SDS011;4031;49.758;6.120;2023-05-10T03:40:04;2.73;;;2.53;;
7971;SDS011;4031;49.758;6.120;2023-05-10T03:42:31;2.30;;;2.07;;
7971;SDS011;4031;49.758;6.120;2023-05-10T03:44:57;1.50;;;1.30;;
7971;SDS011;4031;49.758;6.120;2023-05-10T03:47:22;3.70;;;1.90;;
7971;SDS011;4031;49.758;6.120;2023-05-10T03:49:48;1.83;;;1.70;;
7971;SDS011;4031;49.758;6.120;2023-05-10T03:52:14;1.80;;;1.60;;
7971;SDS011;4031;49.758;6.120;2023-05-10T03:54:39;2.47;;;1.50;;
7971;SDS011;4031;49.758;6.120;2023-05-10T03:57:05;1.67;;;1.33;;
7971;SDS011;4031;49.758;6.120;2023-05-10T03:59:31;1.20;;;0.87;;
7971;SDS011;4031;49.758;6.120;2023-05-10T04:01:56;1.83;;;1.50;;
7971;SDS011;4031;49.758;6.120;2023-05-10T04:04:22;1.03;;;0.93;;
7971;SDS011;4031;49.758;6.120;2023-05-10T04:06:48;1.47;;;1.00;;
7971;SDS011;4031;49.758;6.120;2023-05-10T04:09:14;1.53;;;0.90;;
7971;SDS011;4031;49.758;6.120;2023-05-10T04:11:41;1.23;;;1.13;;
7971;SDS011;4031;49.758;6.120;2023-05-10T04:14:07;1.13;;;1.03;;
7971;SDS011;4031;49.758;6.120;2023-05-10T04:16:32;0.70;;;0.70;;
7971;SDS011;4031;49.758;6.120;2023-05-10T04:18:58;0.80;;;0.70;;
7971;SDS011;4031;49.758;6.120;2023-05-10T04:21:24;2.30;;;0.93;;
7971;SDS011;4031;49.758;6.120;2023-05-10T04:23:50;1.80;;;1.10;;
7971;SDS011;4031;49.758;6.120;2023-05-10T04:26:16;2.00;;;1.10;;
7971;SDS011;4031;49.758;6.120;2023-05-10T04:28:42;1.90;;;1.10;;
7971;SDS011;4031;49.758;6.120;2023-05-10T04:31:08;1.37;;;1.07;;
7971;SDS011;4031;49.758;6.120;2023-05-10T04:33:35;1.50;;;1.40;;
7971;SDS011;4031;49.758;6.120;2023-05-10T04:36:02;1.10;;;1.00;;
7971;SDS011;4031;49.758;6.120;2023-05-10T04:38:28;2.60;;;1.10;;
7971;SDS011;4031;49.758;6.120;2023-05-10T04:40:54;3.40;;;1.20;;
7971;SDS011;4031;49.758;6.120;2023-05-10T04:43:32;2.03;;;1.30;;
7971;SDS011;4031;49.758;6.120;2023-05-10T04:45:58;1.17;;;1.07;;
7971;SDS011;4031;49.758;6.120;2023-05-10T04:48:24;1.07;;;0.97;;
7971;SDS011;4031;49.758;6.120;2023-05-10T04:50:50;1.23;;;1.00;;
7971;SDS011;4031;49.758;6.120;2023-05-10T04:53:15;1.77;;;0.90;;
7971;SDS011;4031;49.758;6.120;2023-05-10T04:55:41;1.00;;;0.60;;
7971;SDS011;4031;49.758;6.120;2023-05-10T04:58:07;0.83;;;0.70;;
7971;SDS011;4031;49.758;6.120;2023-05-10T05:00:33;1.03;;;0.93;;
7971;SDS011;4031;49.758;6.120;2023-05-10T05:02:59;2.47;;;1.07;;
7971;SDS011;4031;49.758;6.120;2023-05-10T05:05:25;0.90;;;0.80;;
7971;SDS011;4031;49.758;6.120;2023-05-10T05:07:51;0.87;;;0.80;;
7971;SDS011;4031;49.758;6.120;2023-05-10T05:10:16;1.73;;;0.80;;
7971;SDS011;4031;49.758;6.120;2023-05-10T05:12:42;0.90;;;0.90;;
7971;SDS011;4031;49.758;6.120;2023-05-10T05:15:08;0.83;;;0.83;;
7971;SDS011;4031;49.758;6.120;2023-05-10T05:17:34;0.80;;;0.80;;
7971;SDS011;4031;49.758;6.120;2023-05-10T05:20:00;1.20;;;1.10;;
7971;SDS011;4031;49.758;6.120;2023-05-10T05:22:26;0.60;;;0.60;;
7971;SDS011;4031;49.758;6.120;2023-05-10T05:24:56;1.23;;;1.03;;
7971;SDS011;4031;49.758;6.120;2023-05-10T05:27:23;2.03;;;1.00;;
7971;SDS011;4031;49.758;6.120;2023-05-10T05:29:53;1.93;;;0.80;;
7971;SDS011;4031;49.758;6.120;2023-05-10T05:32:20;0.93;;;0.80;;
7971;SDS011;4031;49.758;6.120;2023-05-10T05:34:46;0.70;;;0.70;;
7971;SDS011;4031;49.758;6.120;2023-05-10T05:37:13;1.73;;;0.77;;
7971;SDS011;4031;49.758;6.120;2023-05-10T05:39:40;0.80;;;0.80;;
7971;SDS011;4031;49.758;6.120;2023-05-10T05:42:07;1.13;;;1.00;;
7971;SDS011;4031;49.758;6.120;2023-05-10T05:44:34;0.83;;;0.83;;
7971;SDS011;4031;49.758;6.120;2023-05-10T05:47:00;3.80;;;0.80;;
7971;SDS011;4031;49.758;6.120;2023-05-10T05:49:26;0.87;;;0.87;;
7971;SDS011;4031;49.758;6.120;2023-05-10T05:51:51;0.70;;;0.70;;
7971;SDS011;4031;49.758;6.120;2023-05-10T05:54:17;3.07;;;0.83;;
7971;SDS011;4031;49.758;6.120;2023-05-10T05:56:43;1.33;;;0.80;;
7971;SDS011;4031;49.758;6.120;2023-05-10T05:59:09;1.23;;;0.80;;
7971;SDS011;4031;49.758;6.120;2023-05-10T06:01:38;1.53;;;0.80;;
7971;SDS011;4031;49.758;6.120;2023-05-10T06:04:05;0.90;;;0.73;;
7971;SDS011;4031;49.758;6.120;2023-05-10T06:06:31;0.83;;;0.83;;
7971;SDS011;4031;49.758;6.120;2023-05-10T06:08:57;2.10;;;0.80;;
7971;SDS011;4031;49.758;6.120;2023-05-10T06:11:22;2.00;;;0.90;;
7971;SDS011;4031;49.758;6.120;2023-05-10T06:13:48;0.87;;;0.63;;
7971;SDS011;4031;49.758;6.120;2023-05-10T06:16:14;1.57;;;0.80;;
7971;SDS011;4031;49.758;6.120;2023-05-10T06:18:40;2.10;;;0.70;;
7971;SDS011;4031;49.758;6.120;2023-05-10T06:21:06;1.37;;;0.70;;
7971;SDS011;4031;49.758;6.120;2023-05-10T06:23:31;0.80;;;0.60;;
7971;SDS011;4031;49.758;6.120;2023-05-10T06:25:57;1.20;;;0.63;;
7971;SDS011;4031;49.758;6.120;2023-05-10T06:28:23;0.77;;;0.77;;
7971;SDS011;4031;49.758;6.120;2023-05-10T06:30:49;1.03;;;0.60;;
7971;SDS011;4031;49.758;6.120;2023-05-10T06:33:15;4.93;;;0.80;;
7971;SDS011;4031;49.758;6.120;2023-05-10T06:35:41;0.50;;;0.50;;
7971;SDS011;4031;49.758;6.120;2023-05-10T06:38:06;0.90;;;0.67;;
7971;SDS011;4031;49.758;6.120;2023-05-10T06:40:32;0.93;;;0.60;;
7971;SDS011;4031;49.758;6.120;2023-05-10T06:42:58;1.47;;;0.77;;
7971;SDS011;4031;49.758;6.120;2023-05-10T06:45:23;0.90;;;0.90;;
7971;SDS011;4031;49.758;6.120;2023-05-10T06:47:49;2.10;;;1.20;;
7971;SDS011;4031;49.758;6.120;2023-05-10T06:50:15;0.70;;;0.70;;
7971;SDS011;4031;49.758;6.120;2023-05-10T06:52:41;0.80;;;0.80;;
7971;SDS011;4031;49.758;6.120;2023-05-10T06:55:06;0.90;;;0.90;;
7971;SDS011;4031;49.758;6.120;2023-05-10T06:57:33;1.00;;;0.80;;
7971;SDS011;4031;49.758;6.120;2023-05-10T06:59:59;0.50;;;0.47;;
7971;SDS011;4031;49.758;6.120;2023-05-10T07:02:25;1.10;;;0.90;;
7971;SDS011;4031;49.758;6.120;2023-05-10T07:04:51;1.70;;;0.70;;
7971;SDS011;4031;49.758;6.120;2023-05-10T07:07:17;0.80;;;0.70;;
7971;SDS011;4031;49.758;6.120;2023-05-10T07:09:43;4.20;;;0.70;;
7971;SDS011;4031;49.758;6.120;2023-05-10T07:12:08;1.20;;;0.67;;
7971;SDS011;4031;49.758;6.120;2023-05-10T07:14:34;1.13;;;0.70;;
7971;SDS011;4031;49.758;6.120;2023-05-10T07:17:00;0.80;;;0.80;;
7971;SDS011;4031;49.758;6.120;2023-05-10T07:19:26;3.07;;;1.20;;
7971;SDS011;4031;49.758;6.120;2023-05-10T07:21:51;1.43;;;0.93;;
7971;SDS011;4031;49.758;6.120;2023-05-10T07:24:17;1.10;;;0.90;;
7971;SDS011;4031;49.758;6.120;2023-05-10T07:26:43;0.83;;;0.77;;
7971;SDS011;4031;49.758;6.120;2023-05-10T07:29:09;1.70;;;1.00;;
7971;SDS011;4031;49.758;6.120;2023-05-10T07:31:35;1.50;;;1.27;;
7971;SDS011;4031;49.758;6.120;2023-05-10T07:34:00;0.70;;;0.70;;
7971;SDS011;4031;49.758;6.120;2023-05-10T07:36:26;1.13;;;1.00;;
7971;SDS011;4031;49.758;6.120;2023-05-10T07:38:52;1.00;;;0.80;;
7971;SDS011;4031;49.758;6.120;2023-05-10T07:41:18;0.80;;;0.80;;
7971;SDS011;4031;49.758;6.120;2023-05-10T07:43:44;1.07;;;0.97;;
7971;SDS011;4031;49.758;6.120;2023-05-10T07:46:09;0.63;;;0.63;;
7971;SDS011;4031;49.758;6.120;2023-05-10T07:48:36;1.03;;;0.93;;
7971;SDS011;4031;49.758;6.120;2023-05-10T07:51:02;0.70;;;0.70;;
7971;SDS011;4031;49.758;6.120;2023-05-10T07:53:28;1.77;;;1.00;;
7971;SDS011;4031;49.758;6.120;2023-05-10T07:55:54;0.90;;;0.90;;
7971;SDS011;4031;49.758;6.120;2023-05-10T07:58:23;3.80;;;1.00;;
7971;SDS011;4031;49.758;6.120;2023-05-10T08:00:50;0.97;;;0.90;;
7971;SDS011;4031;49.758;6.120;2023-05-10T08:03:16;0.93;;;0.83;;
7971;SDS011;4031;49.758;6.120;2023-05-10T08:05:41;1.47;;;0.97;;
7971;SDS011;4031;49.758;6.120;2023-05-10T08:08:07;0.70;;;0.70;;
7971;SDS011;4031;49.758;6.120;2023-05-10T08:10:33;0.70;;;0.70;;
7971;SDS011;4031;49.758;6.120;2023-05-10T08:12:58;0.90;;;0.90;;
7971;SDS011;4031;49.758;6.120;2023-05-10T08:15:24;0.80;;;0.60;;
7971;SDS011;4031;49.758;6.120;2023-05-10T08:17:51;1.33;;;1.00;;
7971;SDS011;4031;49.758;6.120;2023-05-10T08:20:17;1.07;;;0.80;;
7971;SDS011;4031;49.758;6.120;2023-05-10T08:22:44;1.97;;;0.83;;
7971;SDS011;4031;49.758;6.120;2023-05-10T08:25:10;0.70;;;0.70;;
7971;SDS011;4031;49.758;6.120;2023-05-10T08:27:36;0.90;;;0.80;;
7971;SDS011;4031;49.758;6.120;2023-05-10T08:30:02;0.70;;;0.70;;
7971;SDS011;4031;49.758;6.120;2023-05-10T08:32:28;0.80;;;0.60;;
7971;SDS011;4031;49.758;6.120;2023-05-10T08:34:54;0.77;;;0.77;;
7971;SDS011;4031;49.758;6.120;2023-05-10T08:37:22;0.60;;;0.60;;
7971;SDS011;4031;49.758;6.120;2023-05-10T08:39:49;1.40;;;1.10;;
7971;SDS011;4031;49.758;6.120;2023-05-10T08:42:16;1.30;;;1.00;;
7971;SDS011;4031;49.758;6.120;2023-05-10T08:44:45;0.70;;;0.70;;
7971;SDS011;4031;49.758;6.120;2023-05-10T08:47:15;0.70;;;0.70;;
7971;SDS011;4031;49.758;6.120;2023-05-10T08:49:43;0.80;;;0.80;;
7971;SDS011;4031;49.758;6.120;2023-05-10T08:52:13;1.23;;;1.00;;
7971;SDS011;4031;49.758;6.120;2023-05-10T08:54:41;0.80;;;0.80;;
7971;SDS011;4031;49.758;6.120;2023-05-10T08:57:07;0.90;;;0.87;;
7971;SDS011;4031;49.758;6.120;2023-05-10T08:59:33;1.23;;;0.80;;
7971;SDS011;4031;49.758;6.120;2023-05-10T09:01:59;1.83;;;1.00;;
7971;SDS011;4031;49.758;6.120;2023-05-10T09:04:27;1.13;;;0.80;;
7971;SDS011;4031;49.758;6.120;2023-05-10T09:06:54;0.90;;;0.90;;
7971;SDS011;4031;49.758;6.120;2023-05-10T09:09:20;1.03;;;1.03;;
7971;SDS011;4031;49.758;6.120;2023-05-10T09:11:46;1.07;;;0.97;;
7971;SDS011;4031;49.758;6.120;2023-05-10T09:14:12;0.80;;;0.80;;
7971;SDS011;4031;49.758;6.120;2023-05-10T09:16:40;1.63;;;1.37;;
7971;SDS011;4031;49.758;6.120;2023-05-10T09:19:06;1.23;;;1.10;;
7971;SDS011;4031;49.758;6.120;2023-05-10T09:21:34;0.90;;;0.90;;
7971;SDS011;4031;49.758;6.120;2023-05-10T09:24:04;1.23;;;1.20;;
7971;SDS011;4031;49.758;6.120;2023-05-10T09:26:31;1.00;;;0.83;;
7971;SDS011;4031;49.758;6.120;2023-05-10T09:28:58;1.43;;;1.00;;
7971;SDS011;4031;49.758;6.120;2023-05-10T09:31:24;1.23;;;1.13;;
7971;SDS011;4031;49.758;6.120;2023-05-10T09:34:20;5.57;;;1.63;;
7971;SDS011;4031;49.758;6.120;2023-05-10T09:37:00;1.87;;;1.20;;
7971;SDS011;4031;49.758;6.120;2023-05-10T09:39:37;4.43;;;1.63;;
7971;SDS011;4031;49.758;6.120;2023-05-10T09:42:07;1.90;;;1.23;;
7971;SDS011;4031;49.758;6.120;2023-05-10T09:44:34;1.87;;;1.50;;
7971;SDS011;4031;49.758;6.120;2023-05-10T09:47:02;1.67;;;1.30;;
7971;SDS011;4031;49.758;6.120;2023-05-10T09:49:28;1.30;;;1.20;;
7971;SDS011;4031;49.758;6.120;2023-05-10T09:52:01;2.57;;;1.57;;
7971;SDS011;4031;49.758;6.120;2023-05-10T09:54:32;2.47;;;1.20;;
7971;SDS011;4031;49.758;6.120;2023-05-10T09:57:00;2.23;;;1.90;;
7971;SDS011;4031;49.758;6.120;2023-05-10T09:59:26;1.87;;;1.70;;
7971;SDS011;4031;49.758;6.120;2023-05-10T10:01:59;2.53;;;1.57;;
7971;SDS011;4031;49.758;6.120;2023-05-10T10:04:25;3.00;;;1.47;;
7971;SDS011;4031;49.758;6.120;2023-05-10T10:06:59;1.60;;;1.37;;
7971;SDS011;4031;49.758;6.120;2023-05-10T10:09:29;2.17;;;1.70;;
7971;SDS011;4031;49.758;6.120;2023-05-10T10:11:56;1.97;;;1.77;;
7971;SDS011;4031;49.758;6.120;2023-05-10T10:14:22;2.43;;;1.90;;
7971;SDS011;4031;49.758;6.120;2023-05-10T10:16:51;3.40;;;2.20;;
7971;SDS011;4031;49.758;6.120;2023-05-10T10:19:20;2.40;;;2.20;;
7971;SDS011;4031;49.758;6.120;2023-05-10T10:21:47;2.83;;;1.97;;
7971;SDS011;4031;49.758;6.120;2023-05-10T10:24:14;1.80;;;1.70;;
7971;SDS011;4031;49.758;6.120;2023-05-10T10:26:40;3.00;;;2.00;;
7971;SDS011;4031;49.758;6.120;2023-05-10T10:31:45;2.83;;;1.73;;
7971;SDS011;4031;49.758;6.120;2023-05-10T10:34:29;2.27;;;2.07;;
7971;SDS011;4031;49.758;6.120;2023-05-10T10:36:56;2.10;;;1.90;;
7971;SDS011;4031;49.758;6.120;2023-05-10T10:39:23;2.70;;;1.83;;
7971;SDS011;4031;49.758;6.120;2023-05-10T10:41:53;2.57;;;2.00;;
7971;SDS011;4031;49.758;6.120;2023-05-10T10:52:27;1.87;;;1.67;;
7971;SDS011;4031;49.758;6.120;2023-05-10T11:08:11;1.90;;;1.70;;
7971;SDS011;4031;49.758;6.120;2023-05-10T11:13:41;1.90;;;1.70;;
7971;SDS011;4031;49.758;6.120;2023-05-10T11:16:21;6.03;;;1.70;;
7971;SDS011;4031;49.758;6.120;2023-05-10T11:19:05;1.77;;;1.67;;
7971;SDS011;4031;49.758;6.120;2023-05-10T11:21:34;3.20;;;1.43;;
7971;SDS011;4031;49.758;6.120;2023-05-10T11:24:35;2.00;;;1.60;;
7971;SDS011;4031;49.758;6.120;2023-05-10T11:27:01;1.60;;;1.50;;
7971;SDS011;4031;49.758;6.120;2023-05-10T11:29:27;3.33;;;1.20;;
7971;SDS011;4031;49.758;6.120;2023-05-10T11:31:52;1.87;;;1.77;;
7971;SDS011;4031;49.758;6.120;2023-05-10T11:34:24;1.77;;;1.60;;
7971;SDS011;4031;49.758;6.120;2023-05-10T11:36:55;2.77;;;1.10;;
7971;SDS011;4031;49.758;6.120;2023-05-10T11:39:28;2.50;;;1.60;;
7971;SDS011;4031;49.758;6.120;2023-05-10T11:41:56;1.57;;;1.40;;
7971;SDS011;4031;49.758;6.120;2023-05-10T11:44:23;3.97;;;1.30;;
7971;SDS011;4031;49.758;6.120;2023-05-10T11:46:54;1.50;;;1.23;;
7971;SDS011;4031;49.758;6.120;2023-05-10T11:49:23;1.40;;;1.30;;
7971;SDS011;4031;49.758;6.120;2023-05-10T11:51:51;2.87;;;1.10;;
7971;SDS011;4031;49.758;6.120;2023-05-10T11:54:16;1.60;;;0.90;;
7971;SDS011;4031;49.758;6.120;2023-05-10T11:56:42;3.73;;;1.33;;
7971;SDS011;4031;49.758;6.120;2023-05-10T11:59:08;2.70;;;1.20;;
7971;SDS011;4031;49.758;6.120;2023-05-10T12:01:33;1.93;;;1.10;;
7971;SDS011;4031;49.758;6.120;2023-05-10T12:04:00;2.60;;;1.10;;
7971;SDS011;4031;49.758;6.120;2023-05-10T12:06:31;1.77;;;1.07;;
7971;SDS011;4031;49.758;6.120;2023-05-10T12:08:57;2.03;;;1.00;;
7971;SDS011;4031;49.758;6.120;2023-05-10T12:11:27;2.20;;;1.10;;
7971;SDS011;4031;49.758;6.120;2023-05-10T12:13:54;1.00;;;0.90;;
7971;SDS011;4031;49.758;6.120;2023-05-10T12:16:21;2.90;;;1.00;;
7971;SDS011;4031;49.758;6.120;2023-05-10T12:18:53;1.53;;;1.00;;
7971;SDS011;4031;49.758;6.120;2023-05-10T12:21:21;2.30;;;0.90;;
7971;SDS011;4031;49.758;6.120;2023-05-10T12:23:48;2.53;;;1.00;;
7971;SDS011;4031;49.758;6.120;2023-05-10T12:26:17;1.70;;;1.13;;
7971;SDS011;4031;49.758;6.120;2023-05-10T12:28:46;2.50;;;1.10;;
7971;SDS011;4031;49.758;6.120;2023-05-10T12:31:11;1.47;;;1.00;;
7971;SDS011;4031;49.758;6.120;2023-05-10T12:33:41;3.33;;;0.90;;
7971;SDS011;4031;49.758;6.120;2023-05-10T12:36:11;6.27;;;1.37;;
7971;SDS011;4031;49.758;6.120;2023-05-10T12:38:40;4.30;;;1.10;;
7971;SDS011;4031;49.758;6.120;2023-05-10T12:41:14;1.17;;;1.03;;
7971;SDS011;4031;49.758;6.120;2023-05-10T12:43:41;1.47;;;1.00;;
7971;SDS011;4031;49.758;6.120;2023-05-10T12:46:07;2.40;;;1.37;;
7971;SDS011;4031;49.758;6.120;2023-05-10T12:48:35;1.17;;;0.60;;
7971;SDS011;4031;49.758;6.120;2023-05-10T12:51:02;2.70;;;1.33;;
7971;SDS011;4031;49.758;6.120;2023-05-10T12:53:29;1.13;;;1.03;;
7971;SDS011;4031;49.758;6.120;2023-05-10T12:55:55;1.30;;;1.20;;
7971;SDS011;4031;49.758;6.120;2023-05-10T12:58:21;1.13;;;0.80;;
7971;SDS011;4031;49.758;6.120;2023-05-10T13:00:47;1.73;;;1.07;;
7971;SDS011;4031;49.758;6.120;2023-05-10T13:03:13;2.00;;;1.37;;
7971;SDS011;4031;49.758;6.120;2023-05-10T13:05:40;1.37;;;0.90;;
7971;SDS011;4031;49.758;6.120;2023-05-10T13:08:06;2.20;;;1.00;;
7971;SDS011;4031;49.758;6.120;2023-05-10T13:10:31;2.00;;;1.00;;
7971;SDS011;4031;49.758;6.120;2023-05-10T13:12:57;1.10;;;1.00;;
7971;SDS011;4031;49.758;6.120;2023-05-10T13:15:24;1.57;;;1.10;;
7971;SDS011;4031;49.758;6.120;2023-05-10T13:17:50;2.70;;;0.93;;
7971;SDS011;4031;49.758;6.120;2023-05-10T13:20:16;1.97;;;0.70;;
7971;SDS011;4031;49.758;6.120;2023-05-10T13:22:43;2.10;;;0.70;;
7971;SDS011;4031;49.758;6.120;2023-05-10T13:25:09;1.63;;;0.80;;
7971;SDS011;4031;49.758;6.120;2023-05-10T13:27:35;1.07;;;1.03;;
7971;SDS011;4031;49.758;6.120;2023-05-10T13:30:02;2.20;;;0.93;;
7971;SDS011;4031;49.758;6.120;2023-05-10T13:32:29;1.00;;;0.60;;
7971;SDS011;4031;49.758;6.120;2023-05-10T13:34:55;1.93;;;0.87;;
7971;SDS011;4031;49.758;6.120;2023-05-10T13:37:21;1.00;;;0.80;;
7971;SDS011;4031;49.758;6.120;2023-05-10T13:39:47;1.40;;;0.80;;
7971;SDS011;4031;49.758;6.120;2023-05-10T13:42:13;1.53;;;0.90;;
7971;SDS011;4031;49.758;6.120;2023-05-10T13:44:38;1.80;;;0.70;;
7971;SDS011;4031;49.758;6.120;2023-05-10T13:47:05;3.23;;;1.07;;
7971;SDS011;4031;49.758;6.120;2023-05-10T13:49:31;2.20;;;0.97;;
7971;SDS011;4031;49.758;6.120;2023-05-10T13:51:57;0.73;;;0.50;;
7971;SDS011;4031;49.758;6.120;2023-05-10T13:54:23;1.27;;;0.90;;
7971;SDS011;4031;49.758;6.120;2023-05-10T13:56:49;1.20;;;1.03;;
7971;SDS011;4031;49.758;6.120;2023-05-10T13:59:15;2.20;;;1.17;;
7971;SDS011;4031;49.758;6.120;2023-05-10T14:01:41;1.10;;;0.60;;
7971;SDS011;4031;49.758;6.120;2023-05-10T14:04:07;0.90;;;0.60;;
7971;SDS011;4031;49.758;6.120;2023-05-10T14:06:35;0.80;;;0.77;;
7971;SDS011;4031;49.758;6.120;2023-05-10T14:09:02;3.13;;;0.87;;
7971;SDS011;4031;49.758;6.120;2023-05-10T14:11:28;0.97;;;0.60;;
7971;SDS011;4031;49.758;6.120;2023-05-10T14:13:54;1.10;;;0.70;;
7971;SDS011;4031;49.758;6.120;2023-05-10T14:16:20;1.23;;;0.60;;
7971;SDS011;4031;49.758;6.120;2023-05-10T14:18:46;0.73;;;0.67;;
7971;SDS011;4031;49.758;6.120;2023-05-10T14:21:12;0.90;;;0.80;;
7971;SDS011;4031;49.758;6.120;2023-05-10T14:23:38;4.13;;;0.93;;
7971;SDS011;4031;49.758;6.120;2023-05-10T14:26:04;1.30;;;0.87;;
7971;SDS011;4031;49.758;6.120;2023-05-10T14:28:30;3.90;;;1.00;;
7971;SDS011;4031;49.758;6.120;2023-05-10T14:30:56;2.53;;;0.60;;
7971;SDS011;4031;49.758;6.120;2023-05-10T14:33:21;1.33;;;0.57;;
7971;SDS011;4031;49.758;6.120;2023-05-10T14:35:47;1.23;;;0.60;;
7971;SDS011;4031;49.758;6.120;2023-05-10T14:38:13;1.33;;;0.70;;
7971;SDS011;4031;49.758;6.120;2023-05-10T14:40:39;2.17;;;0.77;;
7971;SDS011;4031;49.758;6.120;2023-05-10T14:43:05;2.33;;;1.00;;
7971;SDS011;4031;49.758;6.120;2023-05-10T14:45:30;2.87;;;0.77;;
7971;SDS011;4031;49.758;6.120;2023-05-10T14:47:56;0.93;;;0.70;;
7971;SDS011;4031;49.758;6.120;2023-05-10T14:50:23;1.53;;;0.80;;
7971;SDS011;4031;49.758;6.120;2023-05-10T14:52:48;1.07;;;0.97;;
7971;SDS011;4031;49.758;6.120;2023-05-10T14:55:15;1.03;;;1.03;;
7971;SDS011;4031;49.758;6.120;2023-05-10T14:57:40;1.10;;;0.87;;
7971;SDS011;4031;49.758;6.120;2023-05-10T15:00:06;0.73;;;0.60;;
7971;SDS011;4031;49.758;6.120;2023-05-10T15:02:33;0.73;;;0.70;;
7971;SDS011;4031;49.758;6.120;2023-05-10T15:04:58;1.17;;;0.67;;
7971;SDS011;4031;49.758;6.120;2023-05-10T15:07:24;1.30;;;0.60;;
7971;SDS011;4031;49.758;6.120;2023-05-10T15:09:50;2.03;;;1.03;;
7971;SDS011;4031;49.758;6.120;2023-05-10T15:12:17;1.17;;;0.73;;
7971;SDS011;4031;49.758;6.120;2023-05-10T15:14:43;1.70;;;0.80;;
7971;SDS011;4031;49.758;6.120;2023-05-10T15:17:09;2.93;;;1.00;;
7971;SDS011;4031;49.758;6.120;2023-05-10T15:19:35;3.57;;;0.70;;
7971;SDS011;4031;49.758;6.120;2023-05-10T15:22:01;1.43;;;0.80;;
7971;SDS011;4031;49.758;6.120;2023-05-10T15:24:27;1.03;;;0.70;;
7971;SDS011;4031;49.758;6.120;2023-05-10T15:26:54;0.90;;;0.70;;
7971;SDS011;4031;49.758;6.120;2023-05-10T15:29:19;1.67;;;0.70;;
7971;SDS011;4031;49.758;6.120;2023-05-10T15:31:49;1.90;;;0.60;;
7971;SDS011;4031;49.758;6.120;2023-05-10T15:34:16;1.97;;;0.70;;
7971;SDS011;4031;49.758;6.120;2023-05-10T15:36:42;1.57;;;0.70;;
7971;SDS011;4031;49.758;6.120;2023-05-10T15:39:09;2.93;;;0.80;;
7971;SDS011;4031;49.758;6.120;2023-05-10T15:41:36;2.63;;;0.83;;
7971;SDS011;4031;49.758;6.120;2023-05-10T15:44:01;0.60;;;0.57;;
7971;SDS011;4031;49.758;6.120;2023-05-10T15:46:28;1.50;;;0.90;;
7971;SDS011;4031;49.758;6.120;2023-05-10T15:48:54;2.37;;;0.70;;
7971;SDS011;4031;49.758;6.120;2023-05-10T15:51:20;1.00;;;0.67;;
7971;SDS011;4031;49.758;6.120;2023-05-10T15:53:46;0.90;;;0.50;;
7971;SDS011;4031;49.758;6.120;2023-05-10T15:56:11;0.80;;;0.60;;
7971;SDS011;4031;49.758;6.120;2023-05-10T15:58:37;0.67;;;0.60;;